createdAt,value
2022-12-19T11:45:49.903Z,39.45
2022-12-19T11:48:39.035Z,39.64
2022-12-19T11:59:59.905Z,42.44
2022-12-19T12:16:12.552Z,46.07
2022-12-19T12:26:41.088Z,47.48
2022-12-19T12:35:36.473Z,52.92
2022-12-19T12:44:46.449Z,53.57
2022-12-19T12:48:43.075Z,53.28
2022-12-19T12:51:57.029Z,53.71
2022-12-19T13:02:36.394Z,54.91
2022-12-19T13:05:36.075Z,54.50
2022-12-19T13:15:49.129Z,56.84
2022-12-19T13:18:33.366Z,56.93
2022-12-19T13:21:05.619Z,57.52
2022-12-19T13:24:16.334Z,57.48
2022-12-19T13:26:50.568Z,59.36
2022-12-19T13:29:53.290Z,60.16
2022-12-19T13:32:23.447Z,60.27
2022-12-19T13:35:01.757Z,59.76
2022-12-19T13:39:57.593Z,60.38
2022-12-19T13:40:51.690Z,60.28
2022-12-19T13:43:46.863Z,59.80
2022-12-19T13:46:28.854Z,61.46
2022-12-19T13:49:05.945Z,61.74
2022-12-19T13:51:45.781Z,60.96
2022-12-19T13:54:23.978Z,61.34
2022-12-19T13:56:54.278Z,62.47
2022-12-19T13:59:26.241Z,63.32
2022-12-19T14:02:06.444Z,62.34
2022-12-19T14:04:35.292Z,63.10
2022-12-19T14:07:06.347Z,62.46
2022-12-19T14:11:26.841Z,62.18
2022-12-19T14:13:51.961Z,63.21
2022-12-19T14:15:40.646Z,63.94
2022-12-19T14:18:44.546Z,63.84
2022-12-19T14:22:05.899Z,64.16
2022-12-19T14:24:17.638Z,64.68
2022-12-19T14:28:23.964Z,64.28
2022-12-19T14:30:19.845Z,65.84
2022-12-19T14:33:44.636Z,66.91
2022-12-19T14:36:05.899Z,66.66
2022-12-19T14:39:22.829Z,65.64
2022-12-19T14:41:40.231Z,66.38
2022-12-19T14:52:52.417Z,69.69
2022-12-19T14:54:02.817Z,68.99
2022-12-19T14:54:16.267Z,68.83
2022-12-19T14:54:31.363Z,67.49
2022-12-19T14:58:58.315Z,70.14
2022-12-19T15:01:29.010Z,71.13
2022-12-19T15:04:52.764Z,71.89
2022-12-19T15:07:07.491Z,71.02
2022-12-19T15:11:07.603Z,70.52
2022-12-19T15:14:51.284Z,70.02
2022-12-19T15:16:01.406Z,71.10
2022-12-19T15:18:40.233Z,70.44
2022-12-19T15:21:12.531Z,70.17
2022-12-19T15:23:44.853Z,70.63
2022-12-19T15:26:19.302Z,71.04
2022-12-19T15:28:52.236Z,71.21
2022-12-19T15:31:34.615Z,71.86
2022-12-19T15:34:34.729Z,72.39
2022-12-19T15:37:07.760Z,75.10
2022-12-19T15:39:39.242Z,76.10
2022-12-19T15:42:21.570Z,75.37
2022-12-19T15:44:52.203Z,75.51
2022-12-19T15:47:30.088Z,74.47
2022-12-19T15:50:02.288Z,74.50
2022-12-19T15:52:31.365Z,73.71
2022-12-19T15:55:03.381Z,75.95
2022-12-19T15:57:35.429Z,75.80
2022-12-19T16:00:07.925Z,75.17
2022-12-19T16:05:28.595Z,74.44
2022-12-19T16:07:58.437Z,73.34
2022-12-19T16:10:27.580Z,74.28
2022-12-19T16:12:57.981Z,74.82
2022-12-19T16:15:28.850Z,74.53
2022-12-19T16:18:00.360Z,76.72
2022-12-19T16:20:31.247Z,74.92
2022-12-19T16:23:00.169Z,73.90
2022-12-19T16:25:34.095Z,75.01
2022-12-19T16:28:04.903Z,75.36
2022-12-19T16:30:35.270Z,75.25
2022-12-19T16:33:03.278Z,75.96
2022-12-19T16:36:02.928Z,76.06
2022-12-19T16:38:21.636Z,74.62
2022-12-19T16:40:52.305Z,74.26
2022-12-19T16:43:29.213Z,75.33
2022-12-19T16:46:01.435Z,75.35
2022-12-19T16:48:31.440Z,75.36
2022-12-19T16:51:01.208Z,74.90
2022-12-19T16:53:30.514Z,76.48
2022-12-19T16:56:00.757Z,76.39
2022-12-19T16:58:30.145Z,75.20
2022-12-19T17:00:59.445Z,76.01
2022-12-19T17:03:35.811Z,76.48
2022-12-19T17:06:05.220Z,76.63
2022-12-19T17:08:34.365Z,76.18
2022-12-19T17:11:38.285Z,76.74
2022-12-19T17:14:13.217Z,76.42
2022-12-19T17:16:42.353Z,76.65
2022-12-19T17:19:19.165Z,76.49
2022-12-19T17:21:48.747Z,77.60
2022-12-19T17:24:18.182Z,76.51
2022-12-19T17:26:47.248Z,76.41
2022-12-19T17:29:16.247Z,76.45
2022-12-19T17:31:47.868Z,77.49
2022-12-19T17:34:22.344Z,77.43
2022-12-19T17:36:51.614Z,76.78
2022-12-19T17:39:22.459Z,77.13
2022-12-19T17:41:52.588Z,78.15
2022-12-19T17:44:21.674Z,77.40
2022-12-19T17:46:50.961Z,77.35
2022-12-19T17:49:25.509Z,77.63
2022-12-19T17:51:55.552Z,76.98
2022-12-19T17:54:25.556Z,77.34
2022-12-19T17:56:55.148Z,78.05
2022-12-19T17:59:24.612Z,77.50
2022-12-19T18:01:54.320Z,77.55
2022-12-19T18:04:24.169Z,77.15
2022-12-19T18:06:53.258Z,77.18
2022-12-19T18:09:24.145Z,77.10
2022-12-19T18:11:53.362Z,77.36
2022-12-19T18:14:22.414Z,76.93
2022-12-19T18:16:52.061Z,77.40
2022-12-19T18:19:24.344Z,77.18
2022-12-19T18:21:53.373Z,76.97
2022-12-19T18:24:22.339Z,76.38
2022-12-19T18:26:51.361Z,76.74
2022-12-19T18:29:20.266Z,76.82
2022-12-19T18:31:51.231Z,76.92
2022-12-19T18:34:26.239Z,76.93
2022-12-19T18:36:55.385Z,76.98
2022-12-19T18:39:26.634Z,76.84
2022-12-19T18:42:00.287Z,76.42
2022-12-19T18:44:29.462Z,76.24
2022-12-19T18:46:58.571Z,76.01
2022-12-19T18:49:34.138Z,76.08
2022-12-19T18:52:06.531Z,76.54
2022-12-19T18:54:36.065Z,76.24
2022-12-19T18:57:05.011Z,75.80
2022-12-19T18:59:33.897Z,75.81
2022-12-19T19:02:04.215Z,75.80
2022-12-19T19:04:33.545Z,75.64
2022-12-19T19:07:02.415Z,75.63
2022-12-19T19:09:31.365Z,75.52
2022-12-19T19:12:32.603Z,75.90
2022-12-19T19:15:01.707Z,76.26
2022-12-19T19:17:31.248Z,75.99
2022-12-19T19:20:03.118Z,76.07
2022-12-19T19:22:32.446Z,75.77
2022-12-19T19:25:01.248Z,75.84
2022-12-19T19:27:30.153Z,75.84
2022-12-19T19:29:59.089Z,75.95
2022-12-19T19:32:28.143Z,75.60
2022-12-19T19:34:57.122Z,75.84
2022-12-19T19:37:28.007Z,75.66
2022-12-19T19:39:57.027Z,75.58
2022-12-19T19:42:26.000Z,75.22
2022-12-19T19:44:55.250Z,75.66
2022-12-19T19:47:31.141Z,76.10
2022-12-19T19:50:00.286Z,75.56
2022-12-19T19:52:31.898Z,75.66
2022-12-19T19:55:00.829Z,76.01
2022-12-19T19:57:33.361Z,76.28
2022-12-19T20:00:03.239Z,76.26
2022-12-19T20:02:43.414Z,76.27
2022-12-19T20:05:12.621Z,76.52
2022-12-19T20:07:41.589Z,76.24
2022-12-19T20:10:12.323Z,76.13
2022-12-19T20:12:46.059Z,76.07
2022-12-19T20:15:17.922Z,76.99
2022-12-19T20:17:46.818Z,77.29
2022-12-19T20:20:15.873Z,77.14
2022-12-19T20:22:44.823Z,77.47
2022-12-19T20:25:13.747Z,77.60
2022-12-19T20:27:42.763Z,77.69
2022-12-19T20:30:13.314Z,78.01
2022-12-19T20:32:42.626Z,77.37
2022-12-19T20:35:14.739Z,77.60
2022-12-19T20:37:44.319Z,78.09
2022-12-19T20:40:13.632Z,78.56
2022-12-19T20:42:42.663Z,78.25
2022-12-19T20:45:11.607Z,78.95
2022-12-19T20:47:40.463Z,78.50
2022-12-19T20:50:12.345Z,79.23
2022-12-19T20:52:41.504Z,78.57
2022-12-19T20:55:11.052Z,78.63
2022-12-19T20:57:40.430Z,78.31
2022-12-19T21:00:12.499Z,78.27
2022-12-19T21:03:24.992Z,78.37
2022-12-19T21:05:30.327Z,77.73
2022-12-19T21:07:59.159Z,77.68
2022-12-19T21:10:27.979Z,77.80
2022-12-19T21:12:57.087Z,78.04
2022-12-19T21:15:25.935Z,77.70
2022-12-19T21:17:54.749Z,77.63
2022-12-19T21:20:24.665Z,77.40
2022-12-19T21:22:56.060Z,77.36
2022-12-19T21:25:25.000Z,77.24
2022-12-19T21:27:53.725Z,77.38
2022-12-19T21:30:23.350Z,77.03
2022-12-19T21:32:52.220Z,77.26
2022-12-19T21:35:21.159Z,76.81
2022-12-19T21:37:51.373Z,77.03
2022-12-19T21:40:20.646Z,76.95
2022-12-19T21:42:49.382Z,76.99
2022-12-19T21:45:18.497Z,76.89
2022-12-19T21:47:47.244Z,77.01
2022-12-19T21:50:16.023Z,76.47
2022-12-19T21:52:44.940Z,76.65
2022-12-19T21:55:13.704Z,76.90
2022-12-19T21:57:42.962Z,76.69
2022-12-19T22:00:13.953Z,76.60
2022-12-19T22:03:11.640Z,76.55
2022-12-19T22:05:35.300Z,76.89
2022-12-19T22:08:04.208Z,76.66
2022-12-19T22:10:33.036Z,76.53
2022-12-19T22:13:01.872Z,76.77
2022-12-19T22:15:30.604Z,76.90
2022-12-19T22:17:59.803Z,76.84
2022-12-19T22:20:29.528Z,77.45
2022-12-19T22:22:58.351Z,77.45
2022-12-19T22:25:27.089Z,77.92
2022-12-19T22:27:56.653Z,77.83
2022-12-19T22:30:25.426Z,77.40
2022-12-19T22:32:54.377Z,77.62
2022-12-19T22:35:23.115Z,77.77
2022-12-19T22:37:51.947Z,77.56
2022-12-19T22:40:20.863Z,77.67
2022-12-19T22:46:12.779Z,77.90
2022-12-19T22:48:45.850Z,78.05
2022-12-19T22:51:22.932Z,78.26
2022-12-19T22:53:55.408Z,78.28
2022-12-19T22:56:30.104Z,78.57
2022-12-19T22:59:06.519Z,78.29
2022-12-19T23:01:40.868Z,78.05
2022-12-19T23:04:15.634Z,77.92
2022-12-19T23:06:53.965Z,78.36
2022-12-19T23:09:26.696Z,78.33
2022-12-19T23:11:59.082Z,78.76
2022-12-19T23:14:33.986Z,78.66
2022-12-19T23:17:06.501Z,78.47
2022-12-19T23:19:38.991Z,78.48
2022-12-19T23:22:11.318Z,78.43
2022-12-19T23:24:44.906Z,78.40
2022-12-19T23:27:17.541Z,78.46
2022-12-19T23:29:51.945Z,78.28
2022-12-19T23:32:24.852Z,78.37
2022-12-19T23:34:57.272Z,78.18
2022-12-19T23:37:29.772Z,77.95
2022-12-19T23:40:02.355Z,77.91
2022-12-19T23:42:36.454Z,78.24
2022-12-19T23:45:10.713Z,78.26
2022-12-19T23:47:42.979Z,78.31
2022-12-19T23:50:15.818Z,78.41
2022-12-19T23:52:48.139Z,78.54
2022-12-19T23:55:21.671Z,77.98
2022-12-19T23:57:53.936Z,77.96
